PWSweather.com
Personal Weather Stations
Station Observations
CAPEBRETON
Mira Road, Sydney, NS

Mira RoadSydney, NS

Lat: 46.1207292, Lon: -60.1594642

Elevation: 175

Station Type: LaCrosse Weather Pro Center 2800 Series

http://pwscapebreton.weebly.com/

Latest ConditionsUpdated 8:58:11 AM GMT-04:56 Monday, Oct 20, 2014
Currently Today's Max Today's Min Today's Average
Temperature 46.8°F8.2°C 54.7°F12.6°C 46.8°F8.2°C 51.3°F10.7°C
Dew Point 44.1°F6.7°C 52.8°F11.6°C 44.1°F6.7°C 49.4°F9.7°C
Winds 1.8 mph NNW2.9 kmh NNW 2.5 mph N4.0 kmh N - 1.0 mph 1.6 kmh
Wind Gusts 5.8 mph9.3 kmh 8.3 mph13.4 kmh - -
Humidity 90% 95% 90% 94%
Pressure 29.51 in999.3 mb 29.51 in999.3 mb 29.29 in991.9 mb -
Precipitation - 0.42 in10.7 mm - -
Hour Temp Dew Point Humidity Winds Wind Gusts Pressure Precip Precip Rate Daily Precip Total
08:58 AM 46.8°F8.2°C 44.1°F6.7°C 90% 1.8 mph NNW2.9 kmh NNW 5.8 mph9.3 kmh 29.51 in999.3 mb 0.00 in0.0 mm 0.00 in/hr0.0 mm/hr 0.42 in10.7 mm
08:53 AM 46.8°F8.2°C 44.1°F6.7°C 90% 2.0 mph W3.2 kmh W 8.3 mph13.4 kmh 29.51 in999.3 mb 0.00 in0.0 mm 0.00 in/hr0.0 mm/hr 0.42 in10.7 mm
08:48 AM 46.8°F8.2°C 44.1°F6.7°C 90% 2.0 mph W3.2 kmh W 8.3 mph13.4 kmh 29.50 in999.0 mb 0.00 in0.0 mm 0.00 in/hr0.0 mm/hr 0.42 in10.7 mm
08:43 AM 47.0°F8.3°C 44.3°F6.8°C 90% 2.2 mph NW3.5 kmh NW 4.0 mph6.4 kmh 29.50 in999.0 mb 0.00 in0.0 mm 0.00 in/hr0.0 mm/hr 0.42 in10.7 mm
08:38 AM 47.0°F8.3°C 44.3°F6.8°C 90% 1.5 mph NW2.4 kmh NW 4.0 mph6.4 kmh 29.49 in998.6 mb 0.00 in0.0 mm 0.00 in/hr0.0 mm/hr 0.42 in10.7 mm
08:33 AM 47.0°F8.3°C 44.3°F6.8°C 90% 2.3 mph W3.7 kmh W 4.7 mph7.6 kmh 29.49 in998.6 mb 0.00 in0.0 mm 0.00 in/hr0.0 mm/hr 0.42 in10.7 mm
08:28 AM 47.2°F8.4°C 44.7°F7.1°C 91% 2.3 mph W3.7 kmh W 4.7 mph7.6 kmh 29.48 in998.3 mb 0.00 in0.0 mm 0.00 in/hr0.0 mm/hr 0.42 in10.7 mm
08:23 AM 47.2°F8.4°C 44.7°F7.1°C 91% 0.9 mph NW1.4 kmh NW 3.4 mph5.5 kmh 29.48 in998.3 mb 0.00 in0.0 mm 0.00 in/hr0.0 mm/hr 0.42 in10.7 mm
08:18 AM 47.3°F8.5°C 44.9°F7.2°C 91% 2.0 mph W3.2 kmh W 3.4 mph5.5 kmh 29.47 in998.0 mb 0.00 in0.0 mm 0.00 in/hr0.0 mm/hr 0.42 in10.7 mm
08:13 AM 47.5°F8.6°C 45.1°F7.3°C 91% 0.8 mph N1.3 kmh N 3.8 mph6.1 kmh 29.47 in998.0 mb 0.00 in0.0 mm 0.00 in/hr0.0 mm/hr 0.42 in10.7 mm
08:08 AM 47.5°F8.6°C 45.1°F7.3°C 91% 1.4 mph NW2.3 kmh NW 3.8 mph6.1 kmh 29.46 in997.6 mb 0.00 in0.0 mm 0.00 in/hr0.0 mm/hr 0.42 in10.7 mm
08:03 AM 47.9°F8.8°C 45.7°F7.6°C 92% 1.1 mph NW1.8 kmh NW 3.1 mph5.0 kmh 29.45 in997.3 mb 0.00 in0.0 mm 0.00 in/hr0.0 mm/hr 0.42 in10.7 mm
07:58 AM 48.1°F8.9°C 46.2°F7.9°C 93% 1.4 mph N2.3 kmh N 3.1 mph5.0 kmh 29.45 in997.3 mb 0.00 in0.0 mm 0.00 in/hr0.0 mm/hr 0.42 in10.7 mm
07:53 AM 48.4°F9.1°C 46.5°F8.1°C 93% 0.9 mph NNW1.4 kmh NNW 3.4 mph5.5 kmh 29.45 in997.3 mb 0.00 in0.0 mm 0.00 in/hr0.0 mm/hr 0.42 in10.7 mm
07:48 AM 48.6°F9.2°C 47.0°F8.3°C 94% 1.1 mph NNW1.8 kmh NNW 3.4 mph5.5 kmh 29.44 in997.0 mb 0.00 in0.0 mm 0.00 in/hr0.0 mm/hr 0.42 in10.7 mm
07:43 AM 48.8°F9.3°C 47.2°F8.4°C 94% 1.6 mph NW2.6 kmh NW 3.4 mph5.5 kmh 29.43 in996.6 mb 0.00 in0.0 mm 0.00 in/hr0.0 mm/hr 0.42 in10.7 mm
07:38 AM 49.0°F9.4°C 47.4°F8.6°C 94% 0.8 mph NW1.3 kmh NW 2.0 mph3.2 kmh 29.42 in996.3 mb 0.00 in0.0 mm 0.00 in/hr0.0 mm/hr 0.42 in10.7 mm
07:33 AM 49.0°F9.4°C 47.4°F8.6°C 94% 1.0 mph NW1.6 kmh NW 2.5 mph4.0 kmh 29.42 in996.3 mb 0.00 in0.0 mm 0.00 in/hr0.0 mm/hr 0.42 in10.7 mm
07:27 AM 49.0°F9.4°C 47.4°F8.6°C 94% 1.2 mph N1.9 kmh N 2.5 mph4.0 kmh 29.42 in996.3 mb 0.00 in0.0 mm 0.00 in/hr0.0 mm/hr 0.42 in10.7 mm
07:22 AM 49.1°F9.5°C 47.4°F8.6°C 94% 0.6 mph WNW1.0 kmh WNW 2.2 mph3.5 kmh 29.41 in995.9 mb 0.00 in0.0 mm 0.00 in/hr0.0 mm/hr 0.42 in10.7 mm
07:17 AM 49.1°F9.5°C 47.4°F8.6°C 94% 0.7 mph N1.1 kmh N 2.9 mph4.7 kmh 29.41 in995.9 mb 0.01 in0.3 mm 0.00 in/hr0.0 mm/hr 0.42 in10.7 mm
07:12 AM 49.3°F9.6°C 47.6°F8.7°C 94% 1.4 mph NE2.3 kmh NE 2.9 mph4.7 kmh 29.40 in995.6 mb 0.01 in0.3 mm 0.00 in/hr0.0 mm/hr 0.42 in10.7 mm
07:07 AM 49.3°F9.6°C 47.6°F8.7°C 94% 1.3 mph N2.1 kmh N 2.7 mph4.3 kmh 29.40 in995.6 mb 0.01 in0.3 mm 0.00 in/hr0.0 mm/hr 0.42 in10.7 mm
07:02 AM 49.5°F9.7°C 47.8°F8.8°C 94% 1.6 mph N2.6 kmh N 2.2 mph3.5 kmh 29.39 in995.3 mb 0.01 in0.3 mm 0.00 in/hr0.0 mm/hr 0.42 in10.7 mm
06:57 AM 49.5°F9.7°C 47.8°F8.8°C 94% 1.4 mph NW2.3 kmh NW 2.2 mph3.5 kmh 29.38 in994.9 mb 0.01 in0.3 mm 0.00 in/hr0.0 mm/hr 0.42 in10.7 mm
06:52 AM 49.7°F9.8°C 48.0°F8.9°C 94% 1.2 mph N1.9 kmh N 2.5 mph4.0 kmh 29.38 in994.9 mb 0.01 in0.3 mm 0.00 in/hr0.0 mm/hr 0.42 in10.7 mm
06:47 AM 49.7°F9.8°C 48.0°F8.9°C 94% 1.0 mph NNW1.6 kmh NNW 2.5 mph4.0 kmh 29.37 in994.6 mb 0.01 in0.3 mm 0.00 in/hr0.0 mm/hr 0.42 in10.7 mm
06:42 AM 49.9°F9.9°C 48.2°F9.0°C 94% 0.9 mph NW1.4 kmh NW 3.4 mph5.5 kmh 29.37 in994.6 mb 0.01 in0.3 mm 0.00 in/hr0.0 mm/hr 0.42 in10.7 mm
06:37 AM 50.0°F10.0°C 48.3°F9.1°C 94% 1.7 mph N2.7 kmh N 4.0 mph6.4 kmh 29.37 in994.6 mb 0.01 in0.3 mm 0.00 in/hr0.0 mm/hr 0.42 in10.7 mm
06:32 AM 50.2°F10.1°C 48.5°F9.2°C 94% 1.5 mph N2.4 kmh N 4.0 mph6.4 kmh 29.36 in994.2 mb 0.01 in0.3 mm 0.00 in/hr0.0 mm/hr 0.42 in10.7 mm
06:27 AM 50.4°F10.2°C 48.7°F9.3°C 94% 1.5 mph NW2.4 kmh NW 3.4 mph5.5 kmh 29.35 in993.9 mb 0.02 in0.5 mm 0.12 in/hr3.0 mm/hr 0.42 in10.7 mm
06:22 AM 50.8°F10.4°C 49.1°F9.5°C 94% 1.4 mph N2.3 kmh N 3.4 mph5.5 kmh 29.34 in993.6 mb 0.01 in0.3 mm 0.00 in/hr0.0 mm/hr 0.42 in10.7 mm
06:17 AM 51.3°F10.7°C 49.6°F9.8°C 94% 1.1 mph NNW1.8 kmh NNW 3.6 mph5.8 kmh 29.34 in993.6 mb 0.02 in0.5 mm 0.00 in/hr0.0 mm/hr 0.42 in10.7 mm
06:12 AM 51.7°F10.9°C 50.0°F10.0°C 94% 1.5 mph N2.4 kmh N 4.9 mph7.9 kmh 29.34 in993.6 mb 0.02 in0.5 mm 0.00 in/hr0.0 mm/hr 0.42 in10.7 mm
06:07 AM 51.8°F11.0°C 50.1°F10.1°C 94% 2.2 mph NW3.5 kmh NW 4.9 mph7.9 kmh 29.34 in993.6 mb 0.03 in0.8 mm 0.00 in/hr0.0 mm/hr 0.42 in10.7 mm
06:02 AM 51.7°F10.9°C 50.0°F10.0°C 94% 2.2 mph WSW3.5 kmh WSW 4.0 mph6.4 kmh 29.33 in993.2 mb 0.04 in1.0 mm 0.00 in/hr0.0 mm/hr 0.42 in10.7 mm
05:57 AM 51.5°F10.8°C 49.8°F9.9°C 94% 1.5 mph NW2.4 kmh NW 3.1 mph5.0 kmh 29.33 in993.2 mb 0.04 in1.0 mm 0.00 in/hr0.0 mm/hr 0.42 in10.7 mm
05:52 AM 51.5°F10.8°C 49.8°F9.9°C 94% 1.0 mph WSW1.6 kmh WSW 4.0 mph6.4 kmh 29.32 in992.9 mb 0.04 in1.0 mm 0.00 in/hr0.0 mm/hr 0.42 in10.7 mm
05:47 AM 51.3°F10.7°C 49.6°F9.8°C 94% 1.4 mph W2.3 kmh W 4.0 mph6.4 kmh 29.32 in992.9 mb 0.04 in1.0 mm 0.00 in/hr0.0 mm/hr 0.42 in10.7 mm
05:42 AM 51.1°F10.6°C 49.4°F9.7°C 94% 0.8 mph NW1.3 kmh NW 1.8 mph2.9 kmh 29.32 in992.9 mb 0.04 in1.0 mm 0.00 in/hr0.0 mm/hr 0.42 in10.7 mm
05:37 AM 51.1°F10.6°C 49.4°F9.7°C 94% 0.8 mph NW1.3 kmh NW 1.6 mph2.6 kmh 29.32 in992.9 mb 0.04 in1.0 mm 0.12 in/hr3.0 mm/hr 0.42 in10.7 mm
05:32 AM 51.1°F10.6°C 49.4°F9.7°C 94% 0.9 mph W1.4 kmh W 1.3 mph2.1 kmh 29.32 in992.9 mb 0.03 in0.8 mm 0.00 in/hr0.0 mm/hr 0.40 in10.2 mm
05:27 AM 50.9°F10.5°C 49.2°F9.6°C 94% 0.3 mph NNE0.5 kmh NNE 1.1 mph1.8 kmh 29.31 in992.6 mb 0.03 in0.8 mm 0.00 in/hr0.0 mm/hr 0.40 in10.2 mm
05:22 AM 50.9°F10.5°C 49.2°F9.6°C 94% 0.3 mph 0.5 kmh 0.9 mph1.4 kmh 29.31 in992.6 mb 0.03 in0.8 mm 0.12 in/hr3.0 mm/hr 0.40 in10.2 mm
05:17 AM 50.9°F10.5°C 49.2°F9.6°C 94% 0.3 mph 0.5 kmh 0.9 mph1.4 kmh 29.30 in992.2 mb 0.02 in0.5 mm 0.00 in/hr0.0 mm/hr 0.40 in10.2 mm
05:12 AM 50.9°F10.5°C 49.2°F9.6°C 94% 0.4 mph NE0.6 kmh NE 0.9 mph1.4 kmh 29.31 in992.6 mb 0.03 in0.8 mm 0.12 in/hr3.0 mm/hr 0.40 in10.2 mm
05:07 AM 50.9°F10.5°C 49.2°F9.6°C 94% 0.4 mph N0.6 kmh N 0.7 mph1.1 kmh 29.32 in992.9 mb 0.02 in0.5 mm 0.00 in/hr0.0 mm/hr 0.38 in9.7 mm
05:02 AM 50.9°F10.5°C 49.2°F9.6°C 94% 0.2 mph 0.3 kmh 0.7 mph1.1 kmh 29.31 in992.6 mb 0.02 in0.5 mm 0.00 in/hr0.0 mm/hr 0.38 in9.7 mm
04:57 AM 50.9°F10.5°C 49.2°F9.6°C 94% 0.3 mph 0.5 kmh 0.9 mph1.4 kmh 29.32 in992.9 mb 0.02 in0.5 mm 0.00 in/hr0.0 mm/hr 0.38 in9.7 mm
04:52 AM 50.9°F10.5°C 49.2°F9.6°C 94% 0.5 mph 0.8 kmh 2.5 mph4.0 kmh 29.31 in992.6 mb 0.02 in0.5 mm 0.00 in/hr0.0 mm/hr 0.38 in9.7 mm
04:47 AM 50.9°F10.5°C 49.2°F9.6°C 94% 1.1 mph N1.8 kmh N 2.5 mph4.0 kmh 29.31 in992.6 mb 0.04 in1.0 mm 0.00 in/hr0.0 mm/hr 0.38 in9.7 mm
04:42 AM 51.1°F10.6°C 49.4°F9.7°C 94% 0.4 mph 0.6 kmh 1.3 mph2.1 kmh 29.32 in992.9 mb 0.05 in1.3 mm 0.00 in/hr0.0 mm/hr 0.38 in9.7 mm
04:37 AM 51.1°F10.6°C 49.4°F9.7°C 94% 0.9 mph 1.4 kmh 1.8 mph2.9 kmh 29.32 in992.9 mb 0.07 in1.8 mm 0.00 in/hr0.0 mm/hr 0.38 in9.7 mm
04:32 AM 51.3°F10.7°C 49.6°F9.8°C 94% 0.6 mph 1.0 kmh 2.7 mph4.3 kmh 29.32 in992.9 mb 0.08 in2.0 mm 0.00 in/hr0.0 mm/hr 0.38 in9.7 mm
04:27 AM 51.3°F10.7°C 49.6°F9.8°C 94% 1.6 mph 2.6 kmh 2.7 mph4.3 kmh 29.32 in992.9 mb 0.10 in2.5 mm 0.00 in/hr0.0 mm/hr 0.38 in9.7 mm
04:22 AM 51.5°F10.8°C 49.8°F9.9°C 94% 1.4 mph N2.3 kmh N 2.2 mph3.5 kmh 29.32 in992.9 mb 0.10 in2.5 mm 0.00 in/hr0.0 mm/hr 0.38 in9.7 mm
04:17 AM 51.5°F10.8°C 49.8°F9.9°C 94% 1.0 mph N1.6 kmh N 2.2 mph3.5 kmh 29.32 in992.9 mb 0.10 in2.5 mm 0.12 in/hr3.0 mm/hr 0.38 in9.7 mm
04:12 AM 51.7°F10.9°C 50.0°F10.0°C 94% 0.9 mph N1.4 kmh N 1.6 mph2.6 kmh 29.32 in992.9 mb 0.09 in2.3 mm 0.00 in/hr0.0 mm/hr 0.37 in9.4 mm
04:07 AM 51.8°F11.0°C 50.1°F10.1°C 94% 0.8 mph 1.3 kmh 1.6 mph2.6 kmh 29.33 in993.2 mb 0.10 in2.5 mm 0.12 in/hr3.0 mm/hr 0.37 in9.4 mm
04:02 AM 51.8°F11.0°C 50.1°F10.1°C 94% 1.0 mph N1.6 kmh N 2.5 mph4.0 kmh 29.33 in993.2 mb 0.09 in2.3 mm 0.00 in/hr0.0 mm/hr 0.35 in8.9 mm
03:57 AM 51.8°F11.0°C 50.1°F10.1°C 94% 1.3 mph N2.1 kmh N 3.4 mph5.5 kmh 29.33 in993.2 mb 0.09 in2.3 mm 0.12 in/hr3.0 mm/hr 0.35 in8.9 mm
03:52 AM 52.0°F11.1°C 50.3°F10.2°C 94% 1.3 mph N2.1 kmh N 3.4 mph5.5 kmh 29.33 in993.2 mb 0.08 in2.0 mm 0.12 in/hr3.0 mm/hr 0.35 in8.9 mm
03:47 AM 52.0°F11.1°C 50.3°F10.2°C 94% 2.5 mph N4.0 kmh N 3.1 mph5.0 kmh 29.33 in993.2 mb 0.07 in1.8 mm 0.24 in/hr6.1 mm/hr 0.33 in8.4 mm
03:42 AM 52.2°F11.2°C 50.5°F10.3°C 94% 2.1 mph 3.4 kmh 2.9 mph4.7 kmh 29.32 in992.9 mb 0.05 in1.3 mm 0.24 in/hr6.1 mm/hr 0.31 in7.9 mm
03:37 AM 52.2°F11.2°C 50.5°F10.3°C 94% 1.6 mph N2.6 kmh N 2.2 mph3.5 kmh 29.32 in992.9 mb 0.03 in0.8 mm 0.12 in/hr3.0 mm/hr 0.29 in7.4 mm
03:32 AM 52.2°F11.2°C 50.5°F10.3°C 94% 1.1 mph N1.8 kmh N 1.8 mph2.9 kmh 29.32 in992.9 mb 0.02 in0.5 mm 0.12 in/hr3.0 mm/hr 0.28 in7.1 mm
03:27 AM 52.2°F11.2°C 50.5°F10.3°C 94% 1.1 mph N1.8 kmh N 2.0 mph3.2 kmh 29.31 in992.6 mb 0.01 in0.3 mm 0.00 in/hr0.0 mm/hr 0.27 in6.9 mm
03:22 AM 52.2°F11.2°C 50.5°F10.3°C 94% 0.3 mph 0.5 kmh 2.0 mph3.2 kmh 29.30 in992.2 mb 0.02 in0.5 mm 0.00 in/hr0.0 mm/hr 0.27 in6.9 mm
03:17 AM 52.2°F11.2°C 50.5°F10.3°C 94% 1.0 mph N1.6 kmh N 2.0 mph3.2 kmh 29.30 in992.2 mb 0.02 in0.5 mm 0.12 in/hr3.0 mm/hr 0.27 in6.9 mm
03:12 AM 52.2°F11.2°C 50.5°F10.3°C 94% 1.3 mph N2.1 kmh N 2.7 mph4.3 kmh 29.29 in991.9 mb 0.01 in0.3 mm 0.00 in/hr0.0 mm/hr 0.26 in6.6 mm
03:07 AM 52.2°F11.2°C 50.5°F10.3°C 94% 2.1 mph N3.4 kmh N 2.7 mph4.3 kmh 29.30 in992.2 mb 0.01 in0.3 mm 0.00 in/hr0.0 mm/hr 0.26 in6.6 mm
03:02 AM 52.2°F11.2°C 50.5°F10.3°C 94% 1.0 mph NNE1.6 kmh NNE 2.2 mph3.5 kmh 29.31 in992.6 mb 0.01 in0.3 mm 0.00 in/hr0.0 mm/hr 0.26 in6.6 mm
02:57 AM 52.4°F11.3°C 50.7°F10.4°C 94% 0.5 mph SE0.8 kmh SE 2.2 mph3.5 kmh 29.31 in992.6 mb 0.02 in0.5 mm 0.00 in/hr0.0 mm/hr 0.26 in6.6 mm
02:52 AM 52.4°F11.3°C 50.7°F10.4°C 94% 1.4 mph 2.3 kmh 2.2 mph3.5 kmh 29.31 in992.6 mb 0.02 in0.5 mm 0.00 in/hr0.0 mm/hr 0.26 in6.6 mm
02:47 AM 52.6°F11.4°C 50.9°F10.5°C 94% 1.3 mph NNE2.1 kmh NNE 2.0 mph3.2 kmh 29.31 in992.6 mb 0.03 in0.8 mm 0.00 in/hr0.0 mm/hr 0.26 in6.6 mm
02:42 AM 52.6°F11.4°C 50.9°F10.5°C 94% 1.2 mph N1.9 kmh N 1.6 mph2.6 kmh 29.31 in992.6 mb 0.03 in0.8 mm 0.00 in/hr0.0 mm/hr 0.26 in6.6 mm
02:37 AM 52.6°F11.4°C 50.9°F10.5°C 94% 1.2 mph N1.9 kmh N 1.8 mph2.9 kmh 29.31 in992.6 mb 0.03 in0.8 mm 0.00 in/hr0.0 mm/hr 0.26 in6.6 mm
02:32 AM 52.6°F11.4°C 50.9°F10.5°C 94% 1.0 mph N1.6 kmh N 1.8 mph2.9 kmh 29.32 in992.9 mb 0.04 in1.0 mm 0.00 in/hr0.0 mm/hr 0.26 in6.6 mm
02:27 AM 52.7°F11.5°C 51.0°F10.6°C 94% 0.9 mph NE1.4 kmh NE 1.8 mph2.9 kmh 29.33 in993.2 mb 0.05 in1.3 mm 0.12 in/hr3.0 mm/hr 0.26 in6.6 mm
02:22 AM 52.7°F11.5°C 51.0°F10.6°C 94% 1.0 mph N1.6 kmh N 1.8 mph2.9 kmh 29.34 in993.6 mb 0.04 in1.0 mm 0.00 in/hr0.0 mm/hr 0.26 in6.6 mm
02:17 AM 52.7°F11.5°C 51.0°F10.6°C 94% 0.4 mph NNE0.6 kmh NNE 1.6 mph2.6 kmh 29.34 in993.6 mb 0.05 in1.3 mm 0.00 in/hr0.0 mm/hr 0.26 in6.6 mm
02:12 AM 52.9°F11.6°C 51.5°F10.8°C 95% 0.9 mph N1.4 kmh N 1.6 mph2.6 kmh 29.35 in993.9 mb 0.05 in1.3 mm 0.00 in/hr0.0 mm/hr 0.26 in6.6 mm
02:07 AM 52.9°F11.6°C 51.2°F10.7°C 94% 0.7 mph 1.1 kmh 1.1 mph1.8 kmh 29.37 in994.6 mb 0.05 in1.3 mm 0.00 in/hr0.0 mm/hr 0.26 in6.6 mm
02:02 AM 53.1°F11.7°C 51.4°F10.8°C 94% 0.9 mph N1.4 kmh N 1.1 mph1.8 kmh 29.37 in994.6 mb 0.07 in1.8 mm 0.01 in/hr0.3 mm/hr 0.26 in6.6 mm
01:57 AM 53.1°F11.7°C 51.4°F10.8°C 94% 0.4 mph 0.6 kmh 1.1 mph1.8 kmh 29.38 in994.9 mb 0.06 in1.5 mm 0.00 in/hr0.0 mm/hr 0.24 in6.1 mm
01:52 AM 53.3°F11.8°C 51.6°F10.9°C 94% 0.4 mph 0.6 kmh 1.1 mph1.8 kmh 29.38 in994.9 mb 0.06 in1.5 mm 0.00 in/hr0.0 mm/hr 0.23 in5.8 mm
01:47 AM 53.3°F11.8°C 51.6°F10.9°C 94% 0.6 mph 1.0 kmh 1.1 mph1.8 kmh 29.39 in995.3 mb 0.09 in2.3 mm 0.00 in/hr0.0 mm/hr 0.23 in5.8 mm
01:42 AM 53.3°F11.8°C 51.6°F10.9°C 94% 0.3 mph 0.5 kmh 1.1 mph1.8 kmh 29.40 in995.6 mb 0.09 in2.3 mm 0.12 in/hr3.0 mm/hr 0.23 in5.8 mm
01:37 AM 53.3°F11.8°C 51.6°F10.9°C 94% 0.9 mph 1.4 kmh 1.1 mph1.8 kmh 29.41 in995.9 mb 0.08 in2.0 mm 0.12 in/hr3.0 mm/hr 0.22 in5.6 mm
01:32 AM 53.5°F11.9°C 51.8°F11.0°C 94% 0.7 mph 1.1 kmh 0.9 mph1.4 kmh 29.41 in995.9 mb 0.07 in1.8 mm 0.00 in/hr0.0 mm/hr 0.21 in5.3 mm
01:27 AM 53.5°F11.9°C 51.8°F11.0°C 94% Calm Calm 0.7 mph1.1 kmh 29.41 in995.9 mb 0.08 in2.0 mm 0.00 in/hr0.0 mm/hr 0.21 in5.3 mm
01:22 AM 53.5°F11.9°C 51.8°F11.0°C 94% 0.5 mph 0.8 kmh 0.9 mph1.4 kmh 29.42 in996.3 mb 0.08 in2.0 mm 0.12 in/hr3.0 mm/hr 0.21 in5.3 mm
01:17 AM 53.5°F11.9°C 51.8°F11.0°C 94% 0.2 mph 0.3 kmh 0.9 mph1.4 kmh 29.42 in996.3 mb 0.07 in1.8 mm 0.00 in/hr0.0 mm/hr 0.20 in5.1 mm
01:12 AM 53.6°F12.0°C 51.9°F11.1°C 94% 0.4 mph 0.6 kmh 0.7 mph1.1 kmh 29.42 in996.3 mb 0.07 in1.8 mm 0.00 in/hr0.0 mm/hr 0.20 in5.1 mm
01:07 AM 53.6°F12.0°C 51.9°F11.1°C 94% 0.5 mph 0.8 kmh 0.9 mph1.4 kmh 29.42 in996.3 mb 0.07 in1.8 mm 0.12 in/hr3.0 mm/hr 0.19 in4.8 mm
01:02 AM 53.6°F12.0°C 51.9°F11.1°C 94% 0.5 mph 0.8 kmh 1.1 mph1.8 kmh 29.43 in996.6 mb 0.06 in1.5 mm 0.00 in/hr0.0 mm/hr 0.18 in4.6 mm
12:57 AM 53.6°F12.0°C 51.9°F11.1°C 94% 0.8 mph 1.3 kmh 1.6 mph2.6 kmh 29.43 in996.6 mb 0.07 in1.8 mm 0.00 in/hr0.0 mm/hr 0.17 in4.3 mm
12:52 AM 53.6°F12.0°C 51.9°F11.1°C 94% 1.4 mph WSW2.3 kmh WSW 1.6 mph2.6 kmh 29.44 in997.0 mb 0.07 in1.8 mm 0.00 in/hr0.0 mm/hr 0.16 in4.1 mm
12:47 AM 53.6°F12.0°C 51.9°F11.1°C 94% 0.6 mph 1.0 kmh 1.1 mph1.8 kmh 29.42 in996.3 mb 0.10 in2.5 mm 0.00 in/hr0.0 mm/hr 0.14 in3.6 mm
12:42 AM 53.8°F12.1°C 52.1°F11.2°C 94% 0.3 mph 0.5 kmh 0.7 mph1.1 kmh 29.42 in996.3 mb 0.11 in2.8 mm 0.00 in/hr0.0 mm/hr 0.14 in3.6 mm
12:37 AM 53.8°F12.1°C 51.9°F11.1°C 93% Calm Calm 0.4 mph0.6 kmh 29.42 in996.3 mb 0.12 in3.0 mm 0.00 in/hr0.0 mm/hr 0.14 in3.6 mm
12:32 AM 53.8°F12.1°C 51.9°F11.1°C 93% 0.3 mph 0.5 kmh 0.4 mph0.6 kmh 29.43 in996.6 mb 0.12 in3.0 mm 0.00 in/hr0.0 mm/hr 0.14 in3.6 mm
12:27 AM 54.0°F12.2°C 52.0°F11.1°C 93% Calm Calm 0.7 mph1.1 kmh 29.44 in997.0 mb 0.12 in3.0 mm 0.00 in/hr0.0 mm/hr 0.13 in3.3 mm
12:22 AM 54.0°F12.2°C 52.0°F11.1°C 93% Calm Calm 1.3 mph2.1 kmh 29.45 in997.3 mb 0.12 in3.0 mm 0.00 in/hr0.0 mm/hr 0.13 in3.3 mm
12:17 AM 54.2°F12.3°C 52.2°F11.2°C 93% 0.7 mph NW1.1 kmh NW 1.3 mph2.1 kmh 29.45 in997.3 mb 0.12 in3.0 mm 0.00 in/hr0.0 mm/hr 0.13 in3.3 mm
12:11 AM 54.4°F12.4°C 52.4°F11.3°C 93% 0.6 mph SW1.0 kmh SW 1.6 mph2.6 kmh 29.44 in997.0 mb 0.12 in3.0 mm 0.12 in/hr3.0 mm/hr 0.13 in3.3 mm
12:06 AM 54.5°F12.5°C 52.6°F11.4°C 93% 0.6 mph NW1.0 kmh NW 2.5 mph4.0 kmh 29.46 in997.6 mb 0.11 in2.8 mm 0.12 in/hr3.0 mm/hr 0.12 in3.0 mm
12:01 AM 54.7°F12.6°C 52.8°F11.6°C 93% 1.5 mph SE2.4 kmh SE 2.5 mph4.0 kmh 29.46 in997.6 mb 0.10 in2.5 mm 6.00 in/hr152.4 mm/hr 0.11 in2.8 mm